createdAt,value
2018-01-27T00:00:01.185Z,17.47
2018-01-27T00:02:29.429Z,18.10
2018-01-27T00:04:56.902Z,20.77
2018-01-27T00:07:24.381Z,19.07
2018-01-27T00:09:52.619Z,15.60
2018-01-27T00:12:20.875Z,16.90
2018-01-27T00:14:48.347Z,22.93
2018-01-27T00:17:15.835Z,18.37
2018-01-27T00:19:43.302Z,18.57
2018-01-27T00:22:10.762Z,30.90
2018-01-27T00:24:39.008Z,18.20
2018-01-27T00:27:06.474Z,15.50
2018-01-27T00:29:33.972Z,20.23
2018-01-27T00:32:05.537Z,20.40
2018-01-27T00:34:33.017Z,19.87
2018-01-27T00:37:00.540Z,19.57
2018-01-27T00:39:28.781Z,18.30
2018-01-27T00:41:56.259Z,15.57
2018-01-27T00:44:23.750Z,15.20
2018-01-27T00:46:51.223Z,19.30
2018-01-27T00:49:18.702Z,15.67
2018-01-27T00:51:46.187Z,23.90
2018-01-27T00:54:13.680Z,19.13
2018-01-27T00:56:41.153Z,17.37
2018-01-27T00:59:08.635Z,16.97
2018-01-27T01:01:36.094Z,21.10
2018-01-27T01:04:04.336Z,20.70
2018-01-27T01:06:35.515Z,21.70
2018-01-27T01:09:02.994Z,22.50
2018-01-27T01:11:30.475Z,23.57
2018-01-27T01:13:58.720Z,18.20
2018-01-27T01:16:26.194Z,26.20
2018-01-27T01:18:53.686Z,26.93
2018-01-27T01:21:21.161Z,19.70
2018-01-27T01:23:48.650Z,20.03
2018-01-27T01:26:16.117Z,19.43
2018-01-27T01:28:43.608Z,22.00
2018-01-27T01:31:11.837Z,22.10
2018-01-27T01:33:39.322Z,23.60
2018-01-27T01:36:06.785Z,26.00
2018-01-27T01:38:35.031Z,28.33
2018-01-27T01:41:02.516Z,26.53
2018-01-27T01:43:35.583Z,33.63
2018-01-27T01:46:03.055Z,33.33
2018-01-27T01:48:30.525Z,31.97
2018-01-27T01:50:58.762Z,33.17
2018-01-27T01:53:26.246Z,34.20
2018-01-27T01:55:53.714Z,33.70
2018-01-27T01:58:21.206Z,34.20
2018-01-27T02:00:48.671Z,35.13
2018-01-27T02:03:16.154Z,28.80
2018-01-27T02:05:43.631Z,28.90
2018-01-27T02:08:11.112Z,33.23
2018-01-27T02:10:39.348Z,35.17
2018-01-27T02:13:06.826Z,33.23
2018-01-27T02:15:34.306Z,29.33
2018-01-27T02:18:01.788Z,32.80
2018-01-27T02:20:29.258Z,30.77
2018-01-27T02:22:56.747Z,34.57
2018-01-27T02:25:24.219Z,31.93
2018-01-27T02:27:52.108Z,32.20
2018-01-27T02:30:20.355Z,27.97
2018-01-27T02:32:47.825Z,31.80
2018-01-27T02:35:15.314Z,23.33
2018-01-27T02:37:43.558Z,35.37
2018-01-27T02:40:11.037Z,37.17
2018-01-27T02:42:39.285Z,34.80
2018-01-27T02:45:06.758Z,36.00
2018-01-27T02:47:34.234Z,33.60
2018-01-27T02:50:02.490Z,31.97
2018-01-27T02:52:29.965Z,28.30
2018-01-27T02:54:58.213Z,23.60
2018-01-27T02:57:25.676Z,26.37
2018-01-27T02:59:53.159Z,28.93
2018-01-27T03:02:21.407Z,22.93
2018-01-27T03:04:48.889Z,26.13
2018-01-27T03:07:17.118Z,23.10
2018-01-27T03:09:44.593Z,23.33
2018-01-27T03:12:12.071Z,22.50
2018-01-27T03:14:39.554Z,21.50
2018-01-27T03:17:07.786Z,27.90
2018-01-27T03:19:35.280Z,27.10
2018-01-27T03:22:03.522Z,21.37
2018-01-27T03:24:31.007Z,24.97
2018-01-27T03:26:58.475Z,20.33
2018-01-27T03:29:26.734Z,23.60
2018-01-27T03:31:54.238Z,24.40
2018-01-27T03:34:21.720Z,34.70
2018-01-27T03:36:49.190Z,26.43
2018-01-27T03:41:54.883Z,23.33
2018-01-27T03:44:22.373Z,36.90
2018-01-27T03:46:49.837Z,27.53
2018-01-27T03:49:17.321Z,39.10
2018-01-27T03:51:44.795Z,34.20
2018-01-27T03:54:12.274Z,31.80
2018-01-27T03:56:39.754Z,31.80
2018-01-27T03:59:08.010Z,25.83
2018-01-27T04:01:36.258Z,32.93
2018-01-27T04:04:03.744Z,31.63
2018-01-27T04:06:31.220Z,25.50
2018-01-27T04:08:59.476Z,25.47
2018-01-27T04:11:26.954Z,30.90
2018-01-27T04:13:55.231Z,38.33
2018-01-27T04:16:23.480Z,25.27
2018-01-27T04:18:50.962Z,25.60
2018-01-27T04:21:19.206Z,28.67
2018-01-27T04:23:46.687Z,25.43
2018-01-27T04:26:14.160Z,29.50
2018-01-27T04:28:42.426Z,28.97
2018-01-27T04:31:09.898Z,33.27
2018-01-27T04:33:38.151Z,30.20
2018-01-27T04:36:05.618Z,30.27
2018-01-27T04:38:33.895Z,35.40
2018-01-27T04:41:02.135Z,33.00
2018-01-27T04:43:29.611Z,33.07
2018-01-27T04:45:57.088Z,29.30
2018-01-27T04:48:25.326Z,36.30
2018-01-27T04:50:52.819Z,29.07
2018-01-27T04:53:20.286Z,29.87
2018-01-27T04:55:48.543Z,29.03
2018-01-27T04:58:16.014Z,28.57
2018-01-27T05:00:43.509Z,30.93
2018-01-27T05:03:11.000Z,25.00
2018-01-27T05:05:39.248Z,26.40
2018-01-27T05:08:06.728Z,29.50
2018-01-27T05:10:34.219Z,31.53
2018-01-27T05:13:01.693Z,29.30
2018-01-27T05:15:29.941Z,25.80
2018-01-27T05:17:57.418Z,36.50
2018-01-27T05:20:24.899Z,29.50
2018-01-27T05:22:53.139Z,24.30
2018-01-27T05:25:20.625Z,25.40
2018-01-27T05:27:48.859Z,25.03
2018-01-27T05:30:16.350Z,25.57
2018-01-27T05:32:44.595Z,32.87
2018-01-27T05:35:12.072Z,27.27
2018-01-27T05:37:39.550Z,35.57
2018-01-27T05:40:07.796Z,32.00
2018-01-27T05:42:35.272Z,26.90
2018-01-27T05:45:02.752Z,26.40
2018-01-27T05:47:30.989Z,26.90
2018-01-27T05:49:58.495Z,34.87
2018-01-27T05:52:25.988Z,28.53
2018-01-27T05:54:53.468Z,34.07
2018-01-27T05:57:20.950Z,21.33
2018-01-27T05:59:49.218Z,28.50
2018-01-27T06:02:16.687Z,32.77
2018-01-27T06:04:44.934Z,24.43
2018-01-27T06:07:12.414Z,33.47
2018-01-27T06:09:40.658Z,26.23
2018-01-27T06:12:08.135Z,22.07
2018-01-27T06:14:35.613Z,28.67
2018-01-27T06:17:03.851Z,21.53
2018-01-27T06:19:31.346Z,24.03
2018-01-27T06:21:59.584Z,22.47
2018-01-27T06:24:27.063Z,28.67
2018-01-27T06:26:54.539Z,18.20
2018-01-27T06:29:22.803Z,21.97
2018-01-27T06:31:50.279Z,17.30
2018-01-27T06:34:18.576Z,22.53
2018-01-27T06:36:46.048Z,20.03
2018-01-27T06:39:13.578Z,21.40
2018-01-27T06:41:41.820Z,24.93
2018-01-27T06:44:09.291Z,25.10
2018-01-27T06:46:36.781Z,24.23
2018-01-27T06:49:05.024Z,21.93
2018-01-27T06:51:32.527Z,20.60
2018-01-27T06:53:59.998Z,17.17
2018-01-27T06:56:27.487Z,20.37
2018-01-27T06:58:54.971Z,26.57
2018-01-27T07:01:22.462Z,19.60
2018-01-27T07:03:49.948Z,20.20
2018-01-27T07:06:17.438Z,25.07
2018-01-27T07:08:44.916Z,22.80
2018-01-27T07:11:13.166Z,24.07
2018-01-27T07:13:40.646Z,22.70
2018-01-27T07:16:08.903Z,27.40
2018-01-27T07:18:36.407Z,25.63
2018-01-27T07:21:03.910Z,23.33
2018-01-27T07:23:31.389Z,25.47
2018-01-27T07:25:58.876Z,25.43
2018-01-27T07:28:26.354Z,22.53
2018-01-27T07:30:53.940Z,27.90
2018-01-27T07:33:21.410Z,30.90
2018-01-27T07:35:48.906Z,21.37
2018-01-27T07:38:16.383Z,27.70
2018-01-27T07:40:43.865Z,17.43
2018-01-27T07:43:11.343Z,20.27
2018-01-27T07:45:38.841Z,23.27
2018-01-27T07:48:07.080Z,21.67
2018-01-27T07:50:34.571Z,27.07
2018-01-27T07:53:02.816Z,26.13
2018-01-27T07:55:30.306Z,29.30
2018-01-27T07:57:58.543Z,29.10
2018-01-27T08:00:26.038Z,25.97
2018-01-27T08:02:54.274Z,31.67
2018-01-27T08:05:21.751Z,31.00
2018-01-27T08:07:49.224Z,21.83
2018-01-27T08:10:17.477Z,25.37
2018-01-27T08:12:44.940Z,28.80
2018-01-27T08:15:12.426Z,23.40
2018-01-27T08:17:40.663Z,22.20
2018-01-27T08:20:08.149Z,24.87
2018-01-27T08:22:36.396Z,23.47
2018-01-27T08:25:03.876Z,29.33
2018-01-27T08:27:31.356Z,27.33
2018-01-27T08:29:59.603Z,20.40
2018-01-27T08:32:27.082Z,19.07
2018-01-27T08:34:55.323Z,21.43
2018-01-27T08:37:22.794Z,23.87
2018-01-27T08:39:50.282Z,24.70
2018-01-27T08:42:17.770Z,22.63
2018-01-27T08:44:45.246Z,21.83
2018-01-27T08:47:12.740Z,19.87
2018-01-27T08:49:41.005Z,21.30
2018-01-27T08:52:08.508Z,21.20
2018-01-27T08:54:35.987Z,17.50
2018-01-27T08:57:03.472Z,22.90
2018-01-27T08:59:30.954Z,22.03
2018-01-27T09:01:58.464Z,20.57
2018-01-27T09:04:25.926Z,23.63
2018-01-27T09:06:53.406Z,20.87
2018-01-27T09:09:20.882Z,21.70
2018-01-27T09:11:48.362Z,22.30
2018-01-27T09:14:15.842Z,24.43
2018-01-27T09:16:43.322Z,32.10
2018-01-27T09:19:10.785Z,26.00
2018-01-27T09:21:38.282Z,27.07
2018-01-27T09:24:06.518Z,30.07
2018-01-27T09:26:34.003Z,36.60
2018-01-27T09:29:01.475Z,28.13
2018-01-27T09:31:29.737Z,30.33
2018-01-27T09:33:57.210Z,30.50
2018-01-27T09:36:25.475Z,25.13
2018-01-27T09:38:52.938Z,30.50
2018-01-27T09:41:21.195Z,34.73
2018-01-27T09:43:48.667Z,29.10
2018-01-27T09:46:16.160Z,22.70
2018-01-27T09:48:43.636Z,27.57
2018-01-27T09:51:11.121Z,33.70
2018-01-27T09:53:38.591Z,28.47
2018-01-27T09:56:06.067Z,31.87
2018-01-27T09:58:34.330Z,30.73
2018-01-27T10:01:01.828Z,34.80
2018-01-27T10:03:30.064Z,28.47
2018-01-27T10:05:57.551Z,32.87
2018-01-27T10:08:25.797Z,30.07
2018-01-27T10:10:53.291Z,31.67
2018-01-27T10:13:21.531Z,33.90
2018-01-27T10:15:49.014Z,37.77
2018-01-27T10:18:17.250Z,36.10
2018-01-27T10:20:44.739Z,32.10
2018-01-27T10:23:12.212Z,35.10
2018-01-27T10:25:40.466Z,29.20
2018-01-27T10:28:07.943Z,30.13
2018-01-27T10:30:36.180Z,30.10
2018-01-27T10:33:03.678Z,25.60
2018-01-27T10:35:31.144Z,30.17
2018-01-27T10:37:59.396Z,28.33
2018-01-27T10:40:26.868Z,29.10
2018-01-27T10:42:55.116Z,27.57
2018-01-27T10:45:22.594Z,24.60
2018-01-27T10:47:50.073Z,30.83
2018-01-27T10:50:18.310Z,21.60
2018-01-27T10:52:45.795Z,28.63
2018-01-27T10:55:14.035Z,25.33
2018-01-27T10:57:41.522Z,26.00
2018-01-27T11:00:09.798Z,26.90
2018-01-27T11:02:37.287Z,25.20
2018-01-27T11:05:05.533Z,32.67
2018-01-27T11:07:33.020Z,30.60
2018-01-27T11:10:01.259Z,21.83
2018-01-27T11:12:28.738Z,35.37
2018-01-27T11:14:56.978Z,26.20
2018-01-27T11:17:24.463Z,22.87
2018-01-27T11:19:51.935Z,25.73
2018-01-27T11:22:20.192Z,22.50
2018-01-27T11:24:47.666Z,25.33
2018-01-27T11:27:15.143Z,22.83
2018-01-27T11:29:42.620Z,27.77
2018-01-27T11:32:10.106Z,17.30
2018-01-27T11:34:37.652Z,19.97
2018-01-27T11:37:05.082Z,27.07
2018-01-27T11:39:32.556Z,22.23
2018-01-27T11:42:00.032Z,16.63
2018-01-27T11:44:27.489Z,22.47
2018-01-27T11:46:54.978Z,23.40
2018-01-27T11:49:22.475Z,23.90
2018-01-27T11:51:49.957Z,18.77
2018-01-27T11:54:17.424Z,19.03
2018-01-27T11:56:44.902Z,24.03
2018-01-27T11:59:12.383Z,21.13
2018-01-27T12:01:39.879Z,20.77
2018-01-27T12:04:07.353Z,22.50
2018-01-27T12:06:34.827Z,25.13
2018-01-27T12:09:03.083Z,27.17
2018-01-27T12:11:30.564Z,21.70
2018-01-27T12:13:58.058Z,14.50
2018-01-27T12:16:26.341Z,19.43
2018-01-27T12:18:53.790Z,23.63
2018-01-27T12:21:21.258Z,23.27
2018-01-27T12:23:49.487Z,11.27
2018-01-27T12:26:16.967Z,10.77
2018-01-27T12:28:44.439Z,16.37
2018-01-27T12:31:12.695Z,15.10
2018-01-27T12:33:40.171Z,11.10
2018-01-27T12:36:07.637Z,13.03
2018-01-27T12:38:35.908Z,18.13
2018-01-27T12:41:03.369Z,19.13
2018-01-27T12:43:31.622Z,18.13
2018-01-27T12:45:59.115Z,20.87
2018-01-27T12:48:27.361Z,17.47
2018-01-27T12:50:54.827Z,15.57
2018-01-27T12:53:22.314Z,16.40
2018-01-27T12:55:50.548Z,12.30
2018-01-27T12:58:18.032Z,12.33
2018-01-27T13:00:45.504Z,13.77
2018-01-27T13:03:13.764Z,8.83
2018-01-27T13:05:41.475Z,14.80
2018-01-27T13:08:08.955Z,11.20
2018-01-27T13:10:36.440Z,11.77
2018-01-27T13:13:03.907Z,9.90
2018-01-27T13:15:32.143Z,13.20
2018-01-27T13:17:59.646Z,11.80
2018-01-27T13:20:27.903Z,14.70
2018-01-27T13:22:55.374Z,12.77
2018-01-27T13:25:22.847Z,14.83
2018-01-27T13:27:51.095Z,11.00
2018-01-27T13:30:18.561Z,11.47
2018-01-27T13:32:46.040Z,14.30
2018-01-27T13:35:14.281Z,11.53
2018-01-27T13:37:41.768Z,16.17
2018-01-27T13:40:10.030Z,14.60
2018-01-27T13:42:37.523Z,15.00
2018-01-27T13:45:04.996Z,15.73
2018-01-27T13:47:32.504Z,15.57
2018-01-27T13:49:59.967Z,11.47
2018-01-27T13:52:27.443Z,14.70
2018-01-27T13:54:55.976Z,12.90
2018-01-27T13:57:23.446Z,14.17
2018-01-27T13:59:50.913Z,11.90
2018-01-27T14:02:19.270Z,12.07
2018-01-27T14:04:46.751Z,14.47
2018-01-27T14:07:14.235Z,18.23
2018-01-27T14:09:42.487Z,19.17
2018-01-27T14:12:10.007Z,15.90
2018-01-27T14:14:38.215Z,19.10
2018-01-27T14:17:05.698Z,14.60
2018-01-27T14:19:33.170Z,14.17
2018-01-27T14:22:01.452Z,16.60
2018-01-27T14:24:28.883Z,18.93
2018-01-27T14:26:56.371Z,16.20
2018-01-27T14:29:23.839Z,15.10
2018-01-27T14:31:51.313Z,17.20
2018-01-27T14:34:18.790Z,15.70
2018-01-27T14:36:46.259Z,21.10
2018-01-27T14:39:13.756Z,17.60
2018-01-27T14:41:42.026Z,14.83
2018-01-27T14:44:10.266Z,15.93
2018-01-27T14:46:37.738Z,17.40
2018-01-27T14:49:05.214Z,20.10
2018-01-27T14:51:33.454Z,17.20
2018-01-27T14:54:00.977Z,16.23
2018-01-27T14:56:28.509Z,14.20
2018-01-27T14:58:55.944Z,15.40
2018-01-27T15:01:23.419Z,16.30
2018-01-27T15:03:50.896Z,16.77
2018-01-27T15:06:19.134Z,14.47
2018-01-27T15:08:46.620Z,20.43
2018-01-27T15:11:14.850Z,19.70
2018-01-27T15:13:42.335Z,23.73
2018-01-27T15:16:09.807Z,21.20
2018-01-27T15:18:37.282Z,24.77
2018-01-27T15:21:05.531Z,24.67
2018-01-27T15:23:33.007Z,26.27
2018-01-27T15:26:01.243Z,19.63
2018-01-27T15:28:28.722Z,25.10
2018-01-27T15:30:56.191Z,21.60
2018-01-27T15:33:25.012Z,27.03
2018-01-27T15:35:52.474Z,26.77
2018-01-27T15:38:19.955Z,25.47
2018-01-27T15:40:47.435Z,31.40
2018-01-27T15:43:14.927Z,26.50
2018-01-27T15:45:43.166Z,25.60
2018-01-27T15:48:10.655Z,25.13
2018-01-27T15:50:38.899Z,26.17
2018-01-27T15:53:06.386Z,23.63
2018-01-27T15:55:34.631Z,20.37
2018-01-27T15:58:02.116Z,22.73
2018-01-27T16:00:29.596Z,23.13
2018-01-27T16:02:57.834Z,23.03
2018-01-27T16:05:25.312Z,20.30
2018-01-27T16:07:52.792Z,21.50
2018-01-27T16:10:20.262Z,22.67
2018-01-27T16:12:47.751Z,23.33
2018-01-27T16:15:15.224Z,25.90
2018-01-27T16:17:42.725Z,26.07
2018-01-27T16:20:10.195Z,24.23
2018-01-27T16:22:37.678Z,24.43
2018-01-27T16:25:05.149Z,31.10
2018-01-27T16:27:32.634Z,31.13
2018-01-27T16:30:00.887Z,31.33
2018-01-27T16:32:28.354Z,22.20
2018-01-27T16:34:55.830Z,22.87
2018-01-27T16:37:23.302Z,26.23
2018-01-27T16:39:51.556Z,27.70
2018-01-27T16:42:19.032Z,27.37
2018-01-27T16:44:46.527Z,24.00
2018-01-27T16:47:14.005Z,26.40
2018-01-27T16:49:41.490Z,25.37
2018-01-27T16:52:08.960Z,26.30
2018-01-27T16:54:37.224Z,29.17
2018-01-27T16:57:04.694Z,25.87
2018-01-27T16:59:32.946Z,28.50
2018-01-27T17:02:00.419Z,25.70
2018-01-27T17:04:27.905Z,23.73
2018-01-27T17:06:55.384Z,24.77
2018-01-27T17:09:22.867Z,21.93
2018-01-27T17:11:50.344Z,25.50
2018-01-27T17:14:17.831Z,30.30
2018-01-27T17:16:46.075Z,31.10
2018-01-27T17:19:13.559Z,27.73
2018-01-27T17:21:41.798Z,28.20
2018-01-27T17:24:09.280Z,24.50
2018-01-27T17:26:36.751Z,23.90
2018-01-27T17:29:05.007Z,27.37
2018-01-27T17:31:32.486Z,20.57
2018-01-27T17:34:00.761Z,20.30
2018-01-27T17:36:28.223Z,23.43
2018-01-27T17:38:56.478Z,23.00
2018-01-27T17:41:23.952Z,21.43
2018-01-27T17:43:52.722Z,21.90
2018-01-27T17:46:20.198Z,23.57
2018-01-27T17:48:48.452Z,24.70
2018-01-27T17:51:15.925Z,23.10
2018-01-27T17:53:43.410Z,28.23
2018-01-27T17:56:12.521Z,26.87
2018-01-27T17:58:40.163Z,21.23
2018-01-27T18:01:08.394Z,22.50
2018-01-27T18:03:35.896Z,28.10
2018-01-27T18:06:04.134Z,15.73
2018-01-27T18:08:31.632Z,23.07
2018-01-27T18:10:59.883Z,29.17
2018-01-27T18:13:27.840Z,53.63
2018-01-27T18:15:55.343Z,20.90
2018-01-27T18:18:22.831Z,19.73
2018-01-27T18:20:50.304Z,18.27
2018-01-27T18:23:17.784Z,21.40
2018-01-27T18:25:45.254Z,21.67
2018-01-27T18:28:12.734Z,18.53
2018-01-27T18:30:41.039Z,17.50
2018-01-27T18:33:08.515Z,16.13
2018-01-27T18:35:36.010Z,23.20
2018-01-27T18:38:04.262Z,16.90
2018-01-27T18:40:31.738Z,17.17
2018-01-27T18:42:59.214Z,18.90
2018-01-27T18:45:27.471Z,16.33
2018-01-27T18:47:54.957Z,17.57
2018-01-27T18:50:24.071Z,15.93
2018-01-27T18:52:51.546Z,18.83
2018-01-27T18:55:19.038Z,15.00
2018-01-27T18:57:46.507Z,15.27
2018-01-27T19:00:14.767Z,15.20
2018-01-27T19:02:42.247Z,18.57
2018-01-27T19:05:10.494Z,14.50
2018-01-27T19:07:37.974Z,15.13
2018-01-27T19:10:05.455Z,11.73
2018-01-27T19:12:33.695Z,16.67
2018-01-27T19:15:01.174Z,13.60
2018-01-27T19:17:29.440Z,13.80
2018-01-27T19:19:56.958Z,16.80
2018-01-27T19:22:24.435Z,17.37
2018-01-27T19:24:51.920Z,16.57
2018-01-27T19:27:19.400Z,16.87
2018-01-27T19:29:46.880Z,16.40
2018-01-27T19:32:14.358Z,13.97
2018-01-27T19:34:41.839Z,15.53
2018-01-27T19:37:09.306Z,14.40
2018-01-27T19:39:36.796Z,16.70
2018-01-27T19:42:04.272Z,15.27
2018-01-27T19:44:33.276Z,13.63
2018-01-27T19:47:00.754Z,13.23
2018-01-27T19:49:28.350Z,18.90
2018-01-27T19:51:56.616Z,15.30
2018-01-27T19:54:24.098Z,13.63
2018-01-27T19:56:52.331Z,14.90
2018-01-27T19:59:19.818Z,14.10
2018-01-27T20:01:47.303Z,19.93
2018-01-27T20:04:15.922Z,12.47
2018-01-27T20:06:45.411Z,13.40
2018-01-27T20:09:13.694Z,11.63
2018-01-27T20:11:41.167Z,16.20
2018-01-27T20:14:08.656Z,13.60
2018-01-27T20:16:38.019Z,14.63
2018-01-27T20:19:05.497Z,12.23
2018-01-27T20:21:33.613Z,11.57
2018-01-27T20:24:01.855Z,12.40
2018-01-27T20:26:29.830Z,16.13
2018-01-27T20:28:57.755Z,16.43
2018-01-27T20:31:25.231Z,11.83
2018-01-27T20:33:52.797Z,17.27
2018-01-27T20:36:20.282Z,14.07
2018-01-27T20:38:48.103Z,10.30
2018-01-27T20:41:16.294Z,10.40
2018-01-27T20:43:43.766Z,10.80
2018-01-27T20:46:11.238Z,9.80
2018-01-27T20:48:38.709Z,11.97
2018-01-27T20:51:06.960Z,11.17
2018-01-27T20:53:34.432Z,12.60
2018-01-27T20:56:02.624Z,16.83
2018-01-27T20:58:31.499Z,12.60
2018-01-27T21:00:58.993Z,11.47
2018-01-27T21:03:27.495Z,9.37
2018-01-27T21:05:54.968Z,12.47
2018-01-27T21:08:22.447Z,12.40
2018-01-27T21:10:50.723Z,15.10
2018-01-27T21:13:18.212Z,12.10
2018-01-27T21:15:46.458Z,12.83
2018-01-27T21:18:13.938Z,9.80
2018-01-27T21:20:42.194Z,9.93
2018-01-27T21:23:09.676Z,12.80
2018-01-27T21:25:37.925Z,10.47
2018-01-27T21:28:05.404Z,9.90
2018-01-27T21:30:33.654Z,15.07
2018-01-27T21:33:01.187Z,9.50
2018-01-27T21:35:28.670Z,8.60
2018-01-27T21:37:57.198Z,12.13
2018-01-27T21:40:24.997Z,9.10
2018-01-27T21:42:52.467Z,9.00
2018-01-27T21:45:19.976Z,8.43
2018-01-27T21:47:49.558Z,9.90
2018-01-27T21:50:17.070Z,11.80
2018-01-27T21:52:44.539Z,9.80
2018-01-27T21:55:12.021Z,8.70
2018-01-27T21:57:39.491Z,11.70
2018-01-27T22:00:07.798Z,9.80
2018-01-27T22:02:36.035Z,9.63
2018-01-27T22:05:03.508Z,10.67
2018-01-27T22:07:31.030Z,8.43
2018-01-27T22:09:58.510Z,8.93
2018-01-27T22:12:26.582Z,9.30
2018-01-27T22:14:54.062Z,9.77
2018-01-27T22:17:21.994Z,7.93
2018-01-27T22:19:49.447Z,9.20
2018-01-27T22:22:16.926Z,12.70
2018-01-27T22:24:44.411Z,9.50
2018-01-27T22:27:13.468Z,11.30
2018-01-27T22:29:42.431Z,10.07
2018-01-27T22:32:11.297Z,7.50
2018-01-27T22:34:39.536Z,9.53
2018-01-27T22:37:07.014Z,8.70
2018-01-27T22:39:35.826Z,9.50
2018-01-27T22:42:04.054Z,9.33
2018-01-27T22:44:31.528Z,8.70
2018-01-27T22:46:59.010Z,8.67
2018-01-27T22:49:27.247Z,9.73
2018-01-27T22:51:55.599Z,10.37
2018-01-27T22:54:23.082Z,7.97
2018-01-27T22:56:50.559Z,7.10
2018-01-27T22:59:18.038Z,10.03
2018-01-27T23:01:46.505Z,8.87
2018-01-27T23:04:13.983Z,7.13
2018-01-27T23:06:42.226Z,8.30
2018-01-27T23:09:09.695Z,7.90
2018-01-27T23:11:37.563Z,5.80
2018-01-27T23:14:06.110Z,8.53
2018-01-27T23:16:33.595Z,10.03
2018-01-27T23:19:01.058Z,8.93
2018-01-27T23:21:28.536Z,7.70
2018-01-27T23:23:56.299Z,7.90
2018-01-27T23:26:23.780Z,7.97
2018-01-27T23:28:51.259Z,9.30
2018-01-27T23:31:18.770Z,7.63
2018-01-27T23:33:46.640Z,9.80
2018-01-27T23:36:14.116Z,8.20
2018-01-27T23:38:43.023Z,8.20
2018-01-27T23:41:10.518Z,11.33
2018-01-27T23:43:37.983Z,8.40
2018-01-27T23:46:05.520Z,7.03
2018-01-27T23:48:34.147Z,13.60
2018-01-27T23:51:01.623Z,9.13
2018-01-27T23:53:29.846Z,8.40
2018-01-27T23:55:57.735Z,7.17
2018-01-27T23:58:25.219Z,9.47
